sensor_id;sensor_type;location;lat;lon;timestamp;P1;durP1;ratioP1;P2;durP2;ratioP2
75730;SDS011;64350;47.450;19.124;2022-10-31T00:01:57;65.17;;;25.67;;
75730;SDS011;64350;47.450;19.124;2022-10-31T00:04:22;59.87;;;24.97;;
75730;SDS011;64350;47.450;19.124;2022-10-31T00:06:47;61.77;;;26.70;;
75730;SDS011;64350;47.450;19.124;2022-10-31T00:09:13;60.87;;;25.70;;
75730;SDS011;64350;47.450;19.124;2022-10-31T00:11:38;65.10;;;26.27;;
75730;SDS011;64350;47.450;19.124;2022-10-31T00:14:03;61.00;;;25.80;;
75730;SDS011;64350;47.450;19.124;2022-10-31T00:16:29;64.03;;;26.25;;
75730;SDS011;64350;47.450;19.124;2022-10-31T00:18:56;63.70;;;26.07;;
75730;SDS011;64350;47.450;19.124;2022-10-31T00:21:26;66.57;;;27.30;;
75730;SDS011;64350;47.450;19.124;2022-10-31T00:23:52;63.47;;;26.77;;
75730;SDS011;64350;47.450;19.124;2022-10-31T00:26:17;59.00;;;26.13;;
75730;SDS011;64350;47.450;19.124;2022-10-31T00:28:43;62.50;;;26.00;;
75730;SDS011;64350;47.450;19.124;2022-10-31T00:31:09;59.23;;;24.93;;
75730;SDS011;64350;47.450;19.124;2022-10-31T00:33:36;57.25;;;23.62;;
75730;SDS011;64350;47.450;19.124;2022-10-31T00:36:03;54.13;;;23.10;;
75730;SDS011;64350;47.450;19.124;2022-10-31T00:38:29;55.75;;;22.85;;
75730;SDS011;64350;47.450;19.124;2022-10-31T00:40:54;53.57;;;23.93;;
75730;SDS011;64350;47.450;19.124;2022-10-31T00:43:20;58.60;;;24.80;;
75730;SDS011;64350;47.450;19.124;2022-10-31T00:45:45;59.23;;;24.00;;
75730;SDS011;64350;47.450;19.124;2022-10-31T00:48:11;51.07;;;22.60;;
75730;SDS011;64350;47.450;19.124;2022-10-31T00:50:36;55.53;;;22.62;;
75730;SDS011;64350;47.450;19.124;2022-10-31T00:53:02;52.80;;;22.50;;
75730;SDS011;64350;47.450;19.124;2022-10-31T00:55:27;51.27;;;21.33;;
75730;SDS011;64350;47.450;19.124;2022-10-31T00:57:53;50.73;;;20.63;;
75730;SDS011;64350;47.450;19.124;2022-10-31T01:00:18;49.17;;;21.13;;
75730;SDS011;64350;47.450;19.124;2022-10-31T01:02:43;56.43;;;21.77;;
75730;SDS011;64350;47.450;19.124;2022-10-31T01:05:09;69.10;;;22.87;;
75730;SDS011;64350;47.450;19.124;2022-10-31T01:07:38;53.28;;;20.17;;
75730;SDS011;64350;47.450;19.124;2022-10-31T01:10:04;57.10;;;21.70;;
75730;SDS011;64350;47.450;19.124;2022-10-31T01:12:35;57.58;;;21.45;;
75730;SDS011;64350;47.450;19.124;2022-10-31T01:15:04;54.42;;;21.17;;
75730;SDS011;64350;47.450;19.124;2022-10-31T01:17:30;59.38;;;21.42;;
75730;SDS011;64350;47.450;19.124;2022-10-31T01:19:55;55.37;;;22.37;;
75730;SDS011;64350;47.450;19.124;2022-10-31T01:22:21;59.13;;;20.77;;
75730;SDS011;64350;47.450;19.124;2022-10-31T01:24:46;53.13;;;20.57;;
75730;SDS011;64350;47.450;19.124;2022-10-31T01:27:11;52.67;;;20.93;;
75730;SDS011;64350;47.450;19.124;2022-10-31T01:29:37;48.93;;;20.13;;
75730;SDS011;64350;47.450;19.124;2022-10-31T01:32:02;46.17;;;18.97;;
75730;SDS011;64350;47.450;19.124;2022-10-31T01:34:28;47.60;;;20.15;;
75730;SDS011;64350;47.450;19.124;2022-10-31T01:36:53;45.80;;;19.47;;
75730;SDS011;64350;47.450;19.124;2022-10-31T01:39:19;45.23;;;20.60;;
75730;SDS011;64350;47.450;19.124;2022-10-31T01:41:46;49.08;;;19.00;;
75730;SDS011;64350;47.450;19.124;2022-10-31T01:46:58;52.40;;;20.17;;
75730;SDS011;64350;47.450;19.124;2022-10-31T01:52:49;52.60;;;20.45;;
75730;SDS011;64350;47.450;19.124;2022-10-31T01:55:05;42.45;;;18.65;;
75730;SDS011;64350;47.450;19.124;2022-10-31T01:57:32;41.25;;;18.75;;
75730;SDS011;64350;47.450;19.124;2022-10-31T01:59:59;41.47;;;17.83;;
75730;SDS011;64350;47.450;19.124;2022-10-31T02:02:27;38.30;;;18.17;;
75730;SDS011;64350;47.450;19.124;2022-10-31T02:04:55;39.75;;;18.05;;
75730;SDS011;64350;47.450;19.124;2022-10-31T02:07:25;41.80;;;18.62;;
75730;SDS011;64350;47.450;19.124;2022-10-31T02:09:54;47.45;;;18.95;;
75730;SDS011;64350;47.450;19.124;2022-10-31T02:12:20;41.57;;;17.87;;
75730;SDS011;64350;47.450;19.124;2022-10-31T02:14:46;44.40;;;18.45;;
75730;SDS011;64350;47.450;19.124;2022-10-31T02:17:11;43.17;;;18.93;;
75730;SDS011;64350;47.450;19.124;2022-10-31T02:19:55;45.55;;;19.15;;
75730;SDS011;64350;47.450;19.124;2022-10-31T02:22:28;44.87;;;18.60;;
75730;SDS011;64350;47.450;19.124;2022-10-31T02:30:27;46.03;;;18.02;;
75730;SDS011;64350;47.450;19.124;2022-10-31T02:39:01;41.55;;;17.52;;
75730;SDS011;64350;47.450;19.124;2022-10-31T02:44:20;39.28;;;17.55;;
75730;SDS011;64350;47.450;19.124;2022-10-31T02:46:54;45.47;;;19.00;;
75730;SDS011;64350;47.450;19.124;2022-10-31T02:49:28;46.57;;;19.37;;
75730;SDS011;64350;47.450;19.124;2022-10-31T02:52:17;43.55;;;16.87;;
75730;SDS011;64350;47.450;19.124;2022-10-31T02:54:44;46.47;;;19.00;;
75730;SDS011;64350;47.450;19.124;2022-10-31T02:57:11;44.45;;;18.40;;
75730;SDS011;64350;47.450;19.124;2022-10-31T02:59:45;41.43;;;17.73;;
75730;SDS011;64350;47.450;19.124;2022-10-31T03:02:28;39.05;;;17.75;;
75730;SDS011;64350;47.450;19.124;2022-10-31T03:05:11;40.22;;;16.62;;
75730;SDS011;64350;47.450;19.124;2022-10-31T03:13:29;35.00;;;14.80;;
75730;SDS011;64350;47.450;19.124;2022-10-31T03:16:47;39.55;;;16.87;;
75730;SDS011;64350;47.450;19.124;2022-10-31T03:19:00;33.58;;;15.20;;
75730;SDS011;64350;47.450;19.124;2022-10-31T03:21:30;39.45;;;16.25;;
75730;SDS011;64350;47.450;19.124;2022-10-31T03:23:58;42.47;;;16.30;;
75730;SDS011;64350;47.450;19.124;2022-10-31T03:26:24;38.60;;;15.82;;
75730;SDS011;64350;47.450;19.124;2022-10-31T03:28:54;39.47;;;16.40;;
75730;SDS011;64350;47.450;19.124;2022-10-31T03:31:26;46.70;;;16.67;;
75730;SDS011;64350;47.450;19.124;2022-10-31T03:33:55;42.60;;;17.60;;
75730;SDS011;64350;47.450;19.124;2022-10-31T03:36:21;44.30;;;17.02;;
75730;SDS011;64350;47.450;19.124;2022-10-31T03:38:47;41.28;;;17.05;;
75730;SDS011;64350;47.450;19.124;2022-10-31T03:41:14;40.17;;;16.63;;
75730;SDS011;64350;47.450;19.124;2022-10-31T03:43:44;43.55;;;16.40;;
75730;SDS011;64350;47.450;19.124;2022-10-31T03:46:13;37.55;;;16.95;;
75730;SDS011;64350;47.450;19.124;2022-10-31T03:48:39;42.10;;;17.30;;
75730;SDS011;64350;47.450;19.124;2022-10-31T03:53:57;38.63;;;16.73;;
75730;SDS011;64350;47.450;19.124;2022-10-31T03:56:33;35.97;;;15.70;;
75730;SDS011;64350;47.450;19.124;2022-10-31T03:59:02;34.67;;;16.25;;
75730;SDS011;64350;47.450;19.124;2022-10-31T04:01:30;32.80;;;14.10;;
75730;SDS011;64350;47.450;19.124;2022-10-31T04:03:57;37.15;;;14.73;;
75730;SDS011;64350;47.450;19.124;2022-10-31T04:06:23;35.53;;;14.33;;
75730;SDS011;64350;47.450;19.124;2022-10-31T04:08:51;35.08;;;15.55;;
75730;SDS011;64350;47.450;19.124;2022-10-31T04:11:19;38.78;;;15.60;;
75730;SDS011;64350;47.450;19.124;2022-10-31T04:13:48;33.10;;;14.00;;
75730;SDS011;64350;47.450;19.124;2022-10-31T04:16:13;35.50;;;15.27;;
75730;SDS011;64350;47.450;19.124;2022-10-31T04:18:40;39.13;;;15.13;;
75730;SDS011;64350;47.450;19.124;2022-10-31T04:21:06;36.40;;;14.90;;
75730;SDS011;64350;47.450;19.124;2022-10-31T04:23:33;40.63;;;15.82;;
75730;SDS011;64350;47.450;19.124;2022-10-31T04:25:59;41.28;;;16.77;;
75730;SDS011;64350;47.450;19.124;2022-10-31T04:28:24;41.53;;;15.10;;
75730;SDS011;64350;47.450;19.124;2022-10-31T04:30:50;35.63;;;14.67;;
75730;SDS011;64350;47.450;19.124;2022-10-31T04:33:16;35.03;;;14.27;;
75730;SDS011;64350;47.450;19.124;2022-10-31T04:35:42;38.60;;;15.38;;
75730;SDS011;64350;47.450;19.124;2022-10-31T04:38:08;34.37;;;14.20;;
75730;SDS011;64350;47.450;19.124;2022-10-31T04:40:33;35.80;;;14.65;;
75730;SDS011;64350;47.450;19.124;2022-10-31T04:42:58;37.53;;;14.67;;
75730;SDS011;64350;47.450;19.124;2022-10-31T04:45:24;31.40;;;14.57;;
75730;SDS011;64350;47.450;19.124;2022-10-31T04:47:49;34.67;;;14.17;;
75730;SDS011;64350;47.450;19.124;2022-10-31T04:50:14;34.37;;;15.13;;
75730;SDS011;64350;47.450;19.124;2022-10-31T04:52:40;35.60;;;15.52;;
75730;SDS011;64350;47.450;19.124;2022-10-31T04:55:09;36.10;;;14.73;;
75730;SDS011;64350;47.450;19.124;2022-10-31T04:57:41;33.92;;;14.48;;
75730;SDS011;64350;47.450;19.124;2022-10-31T05:00:11;31.35;;;13.57;;
75730;SDS011;64350;47.450;19.124;2022-10-31T05:02:44;35.63;;;13.30;;
75730;SDS011;64350;47.450;19.124;2022-10-31T05:05:11;32.38;;;14.18;;
75730;SDS011;64350;47.450;19.124;2022-10-31T05:07:43;33.78;;;14.25;;
75730;SDS011;64350;47.450;19.124;2022-10-31T05:10:11;34.40;;;13.93;;
75730;SDS011;64350;47.450;19.124;2022-10-31T05:12:38;33.25;;;13.43;;
75730;SDS011;64350;47.450;19.124;2022-10-31T05:15:10;33.83;;;14.20;;
75730;SDS011;64350;47.450;19.124;2022-10-31T05:17:35;34.85;;;14.40;;
75730;SDS011;64350;47.450;19.124;2022-10-31T05:20:00;35.20;;;14.13;;
75730;SDS011;64350;47.450;19.124;2022-10-31T05:22:26;32.30;;;14.00;;
75730;SDS011;64350;47.450;19.124;2022-10-31T05:24:51;34.80;;;13.60;;
75730;SDS011;64350;47.450;19.124;2022-10-31T05:27:16;34.27;;;13.83;;
75730;SDS011;64350;47.450;19.124;2022-10-31T05:29:42;34.83;;;14.00;;
75730;SDS011;64350;47.450;19.124;2022-10-31T05:32:07;33.77;;;14.43;;
75730;SDS011;64350;47.450;19.124;2022-10-31T05:34:32;34.23;;;14.33;;
75730;SDS011;64350;47.450;19.124;2022-10-31T05:36:58;33.60;;;14.00;;
75730;SDS011;64350;47.450;19.124;2022-10-31T05:39:23;33.73;;;14.23;;
75730;SDS011;64350;47.450;19.124;2022-10-31T05:41:49;38.13;;;15.67;;
75730;SDS011;64350;47.450;19.124;2022-10-31T05:44:14;34.47;;;15.00;;
75730;SDS011;64350;47.450;19.124;2022-10-31T05:46:39;41.23;;;15.60;;
75730;SDS011;64350;47.450;19.124;2022-10-31T05:49:05;36.53;;;14.43;;
75730;SDS011;64350;47.450;19.124;2022-10-31T05:51:30;33.27;;;15.07;;
75730;SDS011;64350;47.450;19.124;2022-10-31T05:53:55;34.43;;;14.43;;
75730;SDS011;64350;47.450;19.124;2022-10-31T05:56:21;33.10;;;13.62;;
75730;SDS011;64350;47.450;19.124;2022-10-31T05:58:46;37.43;;;14.57;;
75730;SDS011;64350;47.450;19.124;2022-10-31T06:01:12;36.57;;;14.87;;
75730;SDS011;64350;47.450;19.124;2022-10-31T06:03:37;34.23;;;14.40;;
75730;SDS011;64350;47.450;19.124;2022-10-31T06:06:02;36.40;;;16.07;;
75730;SDS011;64350;47.450;19.124;2022-10-31T06:08:28;37.45;;;15.50;;
75730;SDS011;64350;47.450;19.124;2022-10-31T06:10:53;36.33;;;15.47;;
75730;SDS011;64350;47.450;19.124;2022-10-31T06:13:19;34.67;;;14.83;;
75730;SDS011;64350;47.450;19.124;2022-10-31T06:15:44;42.97;;;16.63;;
75730;SDS011;64350;47.450;19.124;2022-10-31T06:18:10;37.13;;;15.35;;
75730;SDS011;64350;47.450;19.124;2022-10-31T06:20:35;39.50;;;15.53;;
75730;SDS011;64350;47.450;19.124;2022-10-31T06:23:01;42.20;;;17.43;;
75730;SDS011;64350;47.450;19.124;2022-10-31T06:25:27;39.42;;;15.18;;
75730;SDS011;64350;47.450;19.124;2022-10-31T06:27:53;41.88;;;17.20;;
75730;SDS011;64350;47.450;19.124;2022-10-31T06:30:19;42.23;;;16.13;;
75730;SDS011;64350;47.450;19.124;2022-10-31T06:32:44;42.27;;;15.77;;
75730;SDS011;64350;47.450;19.124;2022-10-31T06:35:10;40.17;;;16.93;;
75730;SDS011;64350;47.450;19.124;2022-10-31T06:37:35;41.75;;;16.23;;
75730;SDS011;64350;47.450;19.124;2022-10-31T06:40:00;44.17;;;18.17;;
75730;SDS011;64350;47.450;19.124;2022-10-31T06:42:26;49.30;;;17.87;;
75730;SDS011;64350;47.450;19.124;2022-10-31T06:44:51;54.67;;;19.83;;
75730;SDS011;64350;47.450;19.124;2022-10-31T06:47:17;55.05;;;19.95;;
75730;SDS011;64350;47.450;19.124;2022-10-31T06:49:42;54.57;;;18.97;;
75730;SDS011;64350;47.450;19.124;2022-10-31T06:52:07;54.17;;;20.10;;
75730;SDS011;64350;47.450;19.124;2022-10-31T06:54:33;56.97;;;19.63;;
75730;SDS011;64350;47.450;19.124;2022-10-31T06:56:58;56.83;;;19.77;;
75730;SDS011;64350;47.450;19.124;2022-10-31T06:59:23;63.70;;;21.40;;
75730;SDS011;64350;47.450;19.124;2022-10-31T07:01:49;55.90;;;20.53;;
75730;SDS011;64350;47.450;19.124;2022-10-31T07:04:15;59.33;;;20.00;;
75730;SDS011;64350;47.450;19.124;2022-10-31T07:06:40;53.75;;;19.90;;
75730;SDS011;64350;47.450;19.124;2022-10-31T07:09:05;53.13;;;19.17;;
75730;SDS011;64350;47.450;19.124;2022-10-31T07:11:31;52.80;;;20.10;;
75730;SDS011;64350;47.450;19.124;2022-10-31T07:13:56;48.77;;;18.57;;
75730;SDS011;64350;47.450;19.124;2022-10-31T07:16:22;45.65;;;16.75;;
75730;SDS011;64350;47.450;19.124;2022-10-31T07:18:47;46.43;;;18.03;;
75730;SDS011;64350;47.450;19.124;2022-10-31T07:21:13;47.03;;;18.03;;
75730;SDS011;64350;47.450;19.124;2022-10-31T07:23:38;47.87;;;18.20;;
75730;SDS011;64350;47.450;19.124;2022-10-31T07:26:03;51.97;;;19.37;;
75730;SDS011;64350;47.450;19.124;2022-10-31T07:28:29;50.58;;;19.15;;
75730;SDS011;64350;47.450;19.124;2022-10-31T07:30:57;49.40;;;18.37;;
75730;SDS011;64350;47.450;19.124;2022-10-31T07:33:23;52.17;;;17.90;;
75730;SDS011;64350;47.450;19.124;2022-10-31T07:35:51;54.23;;;19.10;;
75730;SDS011;64350;47.450;19.124;2022-10-31T07:38:16;46.80;;;17.45;;
75730;SDS011;64350;47.450;19.124;2022-10-31T07:40:42;48.17;;;17.70;;
75730;SDS011;64350;47.450;19.124;2022-10-31T07:43:08;39.20;;;16.08;;
75730;SDS011;64350;47.450;19.124;2022-10-31T07:45:34;40.03;;;16.00;;
75730;SDS011;64350;47.450;19.124;2022-10-31T07:48:00;44.72;;;16.08;;
75730;SDS011;64350;47.450;19.124;2022-10-31T07:50:26;40.63;;;17.17;;
75730;SDS011;64350;47.450;19.124;2022-10-31T07:53:05;38.58;;;15.27;;
75730;SDS011;64350;47.450;19.124;2022-10-31T07:55:32;39.93;;;15.47;;
75730;SDS011;64350;47.450;19.124;2022-10-31T07:58:02;40.97;;;16.83;;
75730;SDS011;64350;47.450;19.124;2022-10-31T08:00:29;44.63;;;17.12;;
75730;SDS011;64350;47.450;19.124;2022-10-31T08:03:02;39.70;;;15.70;;
75730;SDS011;64350;47.450;19.124;2022-10-31T08:05:29;42.70;;;15.23;;
75730;SDS011;64350;47.450;19.124;2022-10-31T08:07:55;37.83;;;16.17;;
75730;SDS011;64350;47.450;19.124;2022-10-31T08:10:21;44.13;;;15.55;;
75730;SDS011;64350;47.450;19.124;2022-10-31T08:12:46;38.87;;;14.70;;
75730;SDS011;64350;47.450;19.124;2022-10-31T08:15:12;41.40;;;16.23;;
75730;SDS011;64350;47.450;19.124;2022-10-31T08:17:38;38.70;;;15.67;;
75730;SDS011;64350;47.450;19.124;2022-10-31T08:20:04;38.22;;;15.57;;
75730;SDS011;64350;47.450;19.124;2022-10-31T08:22:30;37.90;;;15.47;;
75730;SDS011;64350;47.450;19.124;2022-10-31T08:24:56;36.00;;;14.80;;
75730;SDS011;64350;47.450;19.124;2022-10-31T08:27:21;39.60;;;15.63;;
75730;SDS011;64350;47.450;19.124;2022-10-31T08:29:47;39.47;;;15.90;;
75730;SDS011;64350;47.450;19.124;2022-10-31T08:32:12;42.57;;;16.87;;
75730;SDS011;64350;47.450;19.124;2022-10-31T08:34:38;33.13;;;15.23;;
75730;SDS011;64350;47.450;19.124;2022-10-31T08:37:03;34.92;;;14.98;;
75730;SDS011;64350;47.450;19.124;2022-10-31T08:39:29;42.63;;;15.27;;
75730;SDS011;64350;47.450;19.124;2022-10-31T08:41:54;35.30;;;14.23;;
75730;SDS011;64350;47.450;19.124;2022-10-31T08:44:19;32.50;;;14.20;;
75730;SDS011;64350;47.450;19.124;2022-10-31T08:46:45;34.63;;;14.57;;
75730;SDS011;64350;47.450;19.124;2022-10-31T08:49:11;34.80;;;14.67;;
75730;SDS011;64350;47.450;19.124;2022-10-31T08:51:36;32.57;;;15.30;;
75730;SDS011;64350;47.450;19.124;2022-10-31T08:54:02;32.58;;;14.15;;
75730;SDS011;64350;47.450;19.124;2022-10-31T08:56:27;35.30;;;14.40;;
75730;SDS011;64350;47.450;19.124;2022-10-31T08:58:53;36.97;;;15.07;;
75730;SDS011;64350;47.450;19.124;2022-10-31T09:01:18;30.05;;;13.60;;
75730;SDS011;64350;47.450;19.124;2022-10-31T09:03:44;34.03;;;15.27;;
75730;SDS011;64350;47.450;19.124;2022-10-31T09:06:09;34.67;;;15.20;;
75730;SDS011;64350;47.450;19.124;2022-10-31T09:08:35;35.30;;;16.20;;
75730;SDS011;64350;47.450;19.124;2022-10-31T09:11:01;35.20;;;15.33;;
75730;SDS011;64350;47.450;19.124;2022-10-31T09:13:27;33.33;;;14.10;;
75730;SDS011;64350;47.450;19.124;2022-10-31T09:15:52;33.00;;;13.93;;
75730;SDS011;64350;47.450;19.124;2022-10-31T09:18:21;30.73;;;14.93;;
75730;SDS011;64350;47.450;19.124;2022-10-31T09:20:47;35.67;;;14.93;;
75730;SDS011;64350;47.450;19.124;2022-10-31T09:23:15;30.67;;;14.02;;
75730;SDS011;64350;47.450;19.124;2022-10-31T09:25:42;33.88;;;14.57;;
75730;SDS011;64350;47.450;19.124;2022-10-31T09:28:09;30.17;;;13.60;;
75730;SDS011;64350;47.450;19.124;2022-10-31T09:30:37;35.03;;;15.60;;
75730;SDS011;64350;47.450;19.124;2022-10-31T09:33:03;34.70;;;15.07;;
75730;SDS011;64350;47.450;19.124;2022-10-31T09:35:30;29.73;;;13.85;;
75730;SDS011;64350;47.450;19.124;2022-10-31T09:37:56;35.80;;;17.20;;
75730;SDS011;64350;47.450;19.124;2022-10-31T09:40:24;31.33;;;14.65;;
75730;SDS011;64350;47.450;19.124;2022-10-31T09:42:58;32.75;;;14.15;;
75730;SDS011;64350;47.450;19.124;2022-10-31T09:50:52;30.15;;;13.82;;
75730;SDS011;64350;47.450;19.124;2022-10-31T09:53:24;37.22;;;14.27;;
75730;SDS011;64350;47.450;19.124;2022-10-31T09:56:11;33.40;;;13.77;;
75730;SDS011;64350;47.450;19.124;2022-10-31T09:58:41;26.83;;;13.15;;
75730;SDS011;64350;47.450;19.124;2022-10-31T10:01:29;27.30;;;13.17;;
75730;SDS011;64350;47.450;19.124;2022-10-31T10:03:58;31.25;;;13.27;;
75730;SDS011;64350;47.450;19.124;2022-10-31T10:06:28;27.05;;;12.13;;
75730;SDS011;64350;47.450;19.124;2022-10-31T10:08:55;27.20;;;12.75;;
75730;SDS011;64350;47.450;19.124;2022-10-31T10:16:35;37.03;;;19.70;;
75730;SDS011;64350;47.450;19.124;2022-10-31T10:28:17;27.77;;;13.55;;
75730;SDS011;64350;47.450;19.124;2022-10-31T10:33:22;23.83;;;11.90;;
75730;SDS011;64350;47.450;19.124;2022-10-31T10:35:55;25.20;;;11.93;;
75730;SDS011;64350;47.450;19.124;2022-10-31T10:38:37;23.87;;;11.50;;
75730;SDS011;64350;47.450;19.124;2022-10-31T10:41:04;25.42;;;12.90;;
75730;SDS011;64350;47.450;19.124;2022-10-31T10:43:38;22.25;;;12.13;;
75730;SDS011;64350;47.450;19.124;2022-10-31T10:46:17;23.17;;;12.70;;
75730;SDS011;64350;47.450;19.124;2022-10-31T10:49:05;25.75;;;12.68;;
75730;SDS011;64350;47.450;19.124;2022-10-31T10:57:13;27.37;;;13.60;;
75730;SDS011;64350;47.450;19.124;2022-10-31T10:59:44;28.40;;;14.10;;
75730;SDS011;64350;47.450;19.124;2022-10-31T11:02:22;27.58;;;13.00;;
75730;SDS011;64350;47.450;19.124;2022-10-31T11:04:50;44.40;;;22.70;;
75730;SDS011;64350;47.450;19.124;2022-10-31T11:07:17;31.60;;;16.58;;
75730;SDS011;64350;47.450;19.124;2022-10-31T11:09:42;29.02;;;15.25;;
75730;SDS011;64350;47.450;19.124;2022-10-31T11:12:08;28.80;;;13.57;;
75730;SDS011;64350;47.450;19.124;2022-10-31T11:14:56;23.10;;;12.65;;
75730;SDS011;64350;47.450;19.124;2022-10-31T11:17:26;25.23;;;12.43;;
75730;SDS011;64350;47.450;19.124;2022-10-31T11:19:59;25.50;;;13.50;;
75730;SDS011;64350;47.450;19.124;2022-10-31T11:22:37;23.90;;;12.70;;
75730;SDS011;64350;47.450;19.124;2022-10-31T11:25:17;26.37;;;12.80;;
75730;SDS011;64350;47.450;19.124;2022-10-31T11:28:01;26.62;;;13.52;;
75730;SDS011;64350;47.450;19.124;2022-10-31T11:30:35;26.45;;;13.07;;
75730;SDS011;64350;47.450;19.124;2022-10-31T11:33:13;27.67;;;13.32;;
75730;SDS011;64350;47.450;19.124;2022-10-31T11:35:55;25.80;;;14.73;;
75730;SDS011;64350;47.450;19.124;2022-10-31T11:38:21;25.83;;;14.07;;
75730;SDS011;64350;47.450;19.124;2022-10-31T11:40:59;22.75;;;12.23;;
75730;SDS011;64350;47.450;19.124;2022-10-31T11:43:30;23.83;;;11.93;;
75730;SDS011;64350;47.450;19.124;2022-10-31T11:45:56;26.40;;;13.23;;
75730;SDS011;64350;47.450;19.124;2022-10-31T11:48:22;23.50;;;11.53;;
75730;SDS011;64350;47.450;19.124;2022-10-31T11:50:50;23.15;;;11.70;;
75730;SDS011;64350;47.450;19.124;2022-10-31T11:53:18;22.73;;;11.70;;
75730;SDS011;64350;47.450;19.124;2022-10-31T11:55:46;22.67;;;10.95;;
75730;SDS011;64350;47.450;19.124;2022-10-31T11:58:22;23.60;;;12.32;;
75730;SDS011;64350;47.450;19.124;2022-10-31T12:00:49;25.07;;;11.90;;
75730;SDS011;64350;47.450;19.124;2022-10-31T12:08:21;22.60;;;11.57;;
75730;SDS011;64350;47.450;19.124;2022-10-31T12:10:57;26.23;;;12.00;;
75730;SDS011;64350;47.450;19.124;2022-10-31T12:16:02;20.58;;;11.88;;
75730;SDS011;64350;47.450;19.124;2022-10-31T12:18:56;22.67;;;11.50;;
75730;SDS011;64350;47.450;19.124;2022-10-31T12:24:26;22.80;;;12.02;;
75730;SDS011;64350;47.450;19.124;2022-10-31T12:30:13;19.80;;;11.82;;
75730;SDS011;64350;47.450;19.124;2022-10-31T12:38:39;22.35;;;12.25;;
75730;SDS011;64350;47.450;19.124;2022-10-31T12:41:16;21.67;;;10.93;;
75730;SDS011;64350;47.450;19.124;2022-10-31T12:43:45;24.37;;;12.48;;
75730;SDS011;64350;47.450;19.124;2022-10-31T12:54:15;25.88;;;13.02;;
75730;SDS011;64350;47.450;19.124;2022-10-31T13:02:00;22.48;;;11.75;;
75730;SDS011;64350;47.450;19.124;2022-10-31T13:05:11;23.50;;;11.50;;
75730;SDS011;64350;47.450;19.124;2022-10-31T13:08:05;24.00;;;11.50;;
75730;SDS011;64350;47.450;19.124;2022-10-31T13:10:51;22.87;;;11.63;;
75730;SDS011;64350;47.450;19.124;2022-10-31T13:15:54;20.95;;;12.00;;
75730;SDS011;64350;47.450;19.124;2022-10-31T13:18:32;21.77;;;11.57;;
75730;SDS011;64350;47.450;19.124;2022-10-31T13:21:02;22.15;;;12.02;;
75730;SDS011;64350;47.450;19.124;2022-10-31T13:23:29;23.48;;;11.95;;
75730;SDS011;64350;47.450;19.124;2022-10-31T13:25:57;21.37;;;11.50;;
75730;SDS011;64350;47.450;19.124;2022-10-31T13:31:30;21.40;;;11.70;;
75730;SDS011;64350;47.450;19.124;2022-10-31T13:33:57;21.00;;;10.77;;
75730;SDS011;64350;47.450;19.124;2022-10-31T13:36:39;32.13;;;15.33;;
75730;SDS011;64350;47.450;19.124;2022-10-31T13:44:26;23.85;;;11.82;;
75730;SDS011;64350;47.450;19.124;2022-10-31T13:46:53;21.02;;;11.18;;
75730;SDS011;64350;47.450;19.124;2022-10-31T13:54:39;23.30;;;12.13;;
75730;SDS011;64350;47.450;19.124;2022-10-31T13:57:06;25.42;;;11.77;;
75730;SDS011;64350;47.450;19.124;2022-10-31T13:59:56;25.12;;;11.60;;
75730;SDS011;64350;47.450;19.124;2022-10-31T14:02:28;24.93;;;12.77;;
75730;SDS011;64350;47.450;19.124;2022-10-31T14:04:56;24.27;;;12.88;;
75730;SDS011;64350;47.450;19.124;2022-10-31T14:07:29;27.55;;;13.98;;
75730;SDS011;64350;47.450;19.124;2022-10-31T14:10:03;24.55;;;14.23;;
75730;SDS011;64350;47.450;19.124;2022-10-31T14:15:13;26.90;;;13.93;;
75730;SDS011;64350;47.450;19.124;2022-10-31T14:22:39;28.00;;;14.30;;
75730;SDS011;64350;47.450;19.124;2022-10-31T14:27:50;28.42;;;13.95;;
75730;SDS011;64350;47.450;19.124;2022-10-31T14:30:18;32.87;;;16.73;;
75730;SDS011;64350;47.450;19.124;2022-10-31T14:32:56;30.48;;;15.00;;
75730;SDS011;64350;47.450;19.124;2022-10-31T14:35:24;32.42;;;15.45;;
75730;SDS011;64350;47.450;19.124;2022-10-31T14:41:07;33.92;;;16.70;;
75730;SDS011;64350;47.450;19.124;2022-10-31T14:46:23;36.33;;;18.50;;
75730;SDS011;64350;47.450;19.124;2022-10-31T14:49:11;39.47;;;17.52;;
75730;SDS011;64350;47.450;19.124;2022-10-31T14:51:42;30.00;;;15.82;;
75730;SDS011;64350;47.450;19.124;2022-10-31T14:54:14;31.70;;;15.40;;
75730;SDS011;64350;47.450;19.124;2022-10-31T14:56:49;31.60;;;15.90;;
75730;SDS011;64350;47.450;19.124;2022-10-31T14:59:20;33.10;;;17.05;;
75730;SDS011;64350;47.450;19.124;2022-10-31T15:01:56;48.92;;;21.27;;
75730;SDS011;64350;47.450;19.124;2022-10-31T15:04:24;31.02;;;16.17;;
75730;SDS011;64350;47.450;19.124;2022-10-31T15:06:59;38.70;;;18.05;;
75730;SDS011;64350;47.450;19.124;2022-10-31T15:09:32;34.23;;;16.67;;
75730;SDS011;64350;47.450;19.124;2022-10-31T15:11:59;34.80;;;16.50;;
75730;SDS011;64350;47.450;19.124;2022-10-31T15:14:26;30.20;;;15.70;;
75730;SDS011;64350;47.450;19.124;2022-10-31T15:16:56;28.83;;;14.57;;
75730;SDS011;64350;47.450;19.124;2022-10-31T15:19:26;38.40;;;17.83;;
75730;SDS011;64350;47.450;19.124;2022-10-31T15:21:53;40.90;;;18.57;;
75730;SDS011;64350;47.450;19.124;2022-10-31T15:24:20;40.78;;;18.15;;
75730;SDS011;64350;47.450;19.124;2022-10-31T15:26:47;37.10;;;17.80;;
75730;SDS011;64350;47.450;19.124;2022-10-31T15:29:14;33.80;;;17.08;;
75730;SDS011;64350;47.450;19.124;2022-10-31T15:36:51;31.92;;;16.25;;
75730;SDS011;64350;47.450;19.124;2022-10-31T15:39:16;31.40;;;15.83;;
75730;SDS011;64350;47.450;19.124;2022-10-31T15:41:52;29.65;;;13.90;;
75730;SDS011;64350;47.450;19.124;2022-10-31T15:44:29;29.65;;;14.00;;
75730;SDS011;64350;47.450;19.124;2022-10-31T15:47:03;28.13;;;14.00;;
75730;SDS011;64350;47.450;19.124;2022-10-31T15:54:59;34.15;;;14.95;;
75730;SDS011;64350;47.450;19.124;2022-10-31T15:57:27;34.67;;;15.15;;
75730;SDS011;64350;47.450;19.124;2022-10-31T15:59:52;33.20;;;15.33;;
75730;SDS011;64350;47.450;19.124;2022-10-31T16:02:20;34.83;;;16.05;;
75730;SDS011;64350;47.450;19.124;2022-10-31T16:04:48;33.85;;;15.80;;
75730;SDS011;64350;47.450;19.124;2022-10-31T16:07:21;36.13;;;16.47;;
75730;SDS011;64350;47.450;19.124;2022-10-31T16:10:00;35.65;;;16.45;;
75730;SDS011;64350;47.450;19.124;2022-10-31T16:12:36;35.45;;;17.20;;
75730;SDS011;64350;47.450;19.124;2022-10-31T16:15:14;39.20;;;17.10;;
75730;SDS011;64350;47.450;19.124;2022-10-31T16:17:41;33.63;;;16.52;;
75730;SDS011;64350;47.450;19.124;2022-10-31T16:20:16;37.80;;;16.70;;
75730;SDS011;64350;47.450;19.124;2022-10-31T16:22:46;36.47;;;15.73;;
75730;SDS011;64350;47.450;19.124;2022-10-31T16:25:16;33.83;;;16.90;;
75730;SDS011;64350;47.450;19.124;2022-10-31T16:27:51;34.17;;;16.00;;
75730;SDS011;64350;47.450;19.124;2022-10-31T16:30:39;32.92;;;16.25;;
75730;SDS011;64350;47.450;19.124;2022-10-31T16:35:50;32.92;;;14.70;;